sensor_id;sensor_type;location;lat;lon;timestamp;P1;durP1;ratioP1;P2;durP2;ratioP2
76125;SDS011;65174;48.138;21.002;2023-12-20T00:00:22;50.33;;;9.23;;
76125;SDS011;65174;48.138;21.002;2023-12-20T00:03:23;34.67;;;8.70;;
76125;SDS011;65174;48.138;21.002;2023-12-20T00:06:25;16.57;;;7.33;;
76125;SDS011;65174;48.138;21.002;2023-12-20T00:09:27;39.75;;;11.90;;
76125;SDS011;65174;48.138;21.002;2023-12-20T00:12:29;26.40;;;8.82;;
76125;SDS011;65174;48.138;21.002;2023-12-20T00:15:31;35.13;;;9.70;;
76125;SDS011;65174;48.138;21.002;2023-12-20T00:18:33;46.35;;;9.80;;
76125;SDS011;65174;48.138;21.002;2023-12-20T00:21:34;39.27;;;11.17;;
76125;SDS011;65174;48.138;21.002;2023-12-20T00:24:36;30.17;;;9.38;;
76125;SDS011;65174;48.138;21.002;2023-12-20T00:27:38;45.10;;;10.07;;
76125;SDS011;65174;48.138;21.002;2023-12-20T00:30:40;36.92;;;8.75;;
76125;SDS011;65174;48.138;21.002;2023-12-20T00:33:42;39.15;;;8.95;;
76125;SDS011;65174;48.138;21.002;2023-12-20T00:36:46;34.70;;;8.20;;
76125;SDS011;65174;48.138;21.002;2023-12-20T00:39:48;25.67;;;7.72;;
76125;SDS011;65174;48.138;21.002;2023-12-20T00:42:49;32.40;;;7.65;;
76125;SDS011;65174;48.138;21.002;2023-12-20T00:45:51;25.27;;;8.40;;
76125;SDS011;65174;48.138;21.002;2023-12-20T00:48:53;48.95;;;9.25;;
76125;SDS011;65174;48.138;21.002;2023-12-20T00:51:55;43.37;;;9.40;;
76125;SDS011;65174;48.138;21.002;2023-12-20T00:54:57;27.08;;;9.43;;
76125;SDS011;65174;48.138;21.002;2023-12-20T00:57:59;44.92;;;10.75;;
76125;SDS011;65174;48.138;21.002;2023-12-20T01:01:01;43.70;;;9.07;;
76125;SDS011;65174;48.138;21.002;2023-12-20T01:04:04;38.33;;;9.05;;
76125;SDS011;65174;48.138;21.002;2023-12-20T01:07:06;26.43;;;8.30;;
76125;SDS011;65174;48.138;21.002;2023-12-20T01:10:08;21.23;;;6.80;;
76125;SDS011;65174;48.138;21.002;2023-12-20T01:13:10;44.38;;;7.80;;
76125;SDS011;65174;48.138;21.002;2023-12-20T01:16:12;39.30;;;8.63;;
76125;SDS011;65174;48.138;21.002;2023-12-20T01:19:14;46.83;;;9.35;;
76125;SDS011;65174;48.138;21.002;2023-12-20T01:22:16;43.73;;;8.37;;
76125;SDS011;65174;48.138;21.002;2023-12-20T01:25:18;27.25;;;8.57;;
76125;SDS011;65174;48.138;21.002;2023-12-20T01:28:20;38.35;;;9.15;;
76125;SDS011;65174;48.138;21.002;2023-12-20T01:31:22;36.17;;;9.07;;
76125;SDS011;65174;48.138;21.002;2023-12-20T01:34:24;27.58;;;8.70;;
76125;SDS011;65174;48.138;21.002;2023-12-20T01:37:26;33.13;;;7.77;;
76125;SDS011;65174;48.138;21.002;2023-12-20T01:40:28;39.78;;;8.73;;
76125;SDS011;65174;48.138;21.002;2023-12-20T01:43:30;36.22;;;8.85;;
76125;SDS011;65174;48.138;21.002;2023-12-20T01:46:41;31.23;;;8.73;;
76125;SDS011;65174;48.138;21.002;2023-12-20T01:49:43;33.95;;;9.02;;
76125;SDS011;65174;48.138;21.002;2023-12-20T01:52:45;38.23;;;8.93;;
76125;SDS011;65174;48.138;21.002;2023-12-20T01:55:47;37.85;;;8.35;;
76125;SDS011;65174;48.138;21.002;2023-12-20T01:58:50;48.28;;;8.82;;
76125;SDS011;65174;48.138;21.002;2023-12-20T02:01:52;34.42;;;8.15;;
76125;SDS011;65174;48.138;21.002;2023-12-20T02:04:54;15.63;;;7.93;;
76125;SDS011;65174;48.138;21.002;2023-12-20T02:07:56;43.63;;;9.10;;
76125;SDS011;65174;48.138;21.002;2023-12-20T02:10:58;19.17;;;5.63;;
76125;SDS011;65174;48.138;21.002;2023-12-20T02:14:00;21.00;;;6.63;;
76125;SDS011;65174;48.138;21.002;2023-12-20T02:17:02;44.83;;;8.27;;
76125;SDS011;65174;48.138;21.002;2023-12-20T02:20:05;41.22;;;8.65;;
76125;SDS011;65174;48.138;21.002;2023-12-20T02:23:07;20.70;;;7.23;;
76125;SDS011;65174;48.138;21.002;2023-12-20T02:26:09;30.20;;;7.00;;
76125;SDS011;65174;48.138;21.002;2023-12-20T02:29:11;24.25;;;6.60;;
76125;SDS011;65174;48.138;21.002;2023-12-20T02:32:13;18.25;;;7.07;;
76125;SDS011;65174;48.138;21.002;2023-12-20T02:35:15;23.50;;;7.45;;
76125;SDS011;65174;48.138;21.002;2023-12-20T02:38:17;57.03;;;8.10;;
76125;SDS011;65174;48.138;21.002;2023-12-20T02:41:19;41.10;;;7.93;;
76125;SDS011;65174;48.138;21.002;2023-12-20T02:44:20;48.38;;;9.23;;
76125;SDS011;65174;48.138;21.002;2023-12-20T02:47:22;33.58;;;8.77;;
76125;SDS011;65174;48.138;21.002;2023-12-20T02:50:24;36.00;;;7.85;;
76125;SDS011;65174;48.138;21.002;2023-12-20T02:53:26;36.20;;;7.90;;
76125;SDS011;65174;48.138;21.002;2023-12-20T02:56:27;37.13;;;7.88;;
76125;SDS011;65174;48.138;21.002;2023-12-20T02:59:29;23.40;;;7.43;;
76125;SDS011;65174;48.138;21.002;2023-12-20T03:02:31;31.17;;;7.65;;
76125;SDS011;65174;48.138;21.002;2023-12-20T03:05:33;37.25;;;7.53;;
76125;SDS011;65174;48.138;21.002;2023-12-20T03:08:35;36.27;;;8.30;;
76125;SDS011;65174;48.138;21.002;2023-12-20T03:11:37;40.20;;;6.95;;
76125;SDS011;65174;48.138;21.002;2023-12-20T03:14:38;39.50;;;8.05;;
76125;SDS011;65174;48.138;21.002;2023-12-20T03:17:40;48.20;;;8.48;;
76125;SDS011;65174;48.138;21.002;2023-12-20T03:20:43;23.20;;;6.40;;
76125;SDS011;65174;48.138;21.002;2023-12-20T03:23:44;46.10;;;7.13;;
76125;SDS011;65174;48.138;21.002;2023-12-20T03:26:46;25.10;;;7.40;;
76125;SDS011;65174;48.138;21.002;2023-12-20T03:29:48;23.80;;;6.40;;
76125;SDS011;65174;48.138;21.002;2023-12-20T03:32:51;27.88;;;6.80;;
76125;SDS011;65174;48.138;21.002;2023-12-20T03:35:53;37.03;;;8.45;;
76125;SDS011;65174;48.138;21.002;2023-12-20T03:38:55;24.77;;;7.80;;
76125;SDS011;65174;48.138;21.002;2023-12-20T03:41:57;37.05;;;8.55;;
76125;SDS011;65174;48.138;21.002;2023-12-20T03:44:58;48.15;;;7.70;;
76125;SDS011;65174;48.138;21.002;2023-12-20T03:48:00;21.48;;;7.43;;
76125;SDS011;65174;48.138;21.002;2023-12-20T03:51:02;35.22;;;8.30;;
76125;SDS011;65174;48.138;21.002;2023-12-20T03:54:04;29.10;;;8.30;;
76125;SDS011;65174;48.138;21.002;2023-12-20T03:57:06;78.03;;;10.07;;
76125;SDS011;65174;48.138;21.002;2023-12-20T04:00:08;36.42;;;10.00;;
76125;SDS011;65174;48.138;21.002;2023-12-20T04:03:15;46.03;;;7.88;;
76125;SDS011;65174;48.138;21.002;2023-12-20T04:06:20;57.42;;;9.70;;
76125;SDS011;65174;48.138;21.002;2023-12-20T04:09:22;37.90;;;8.07;;
76125;SDS011;65174;48.138;21.002;2023-12-20T04:12:23;29.58;;;7.28;;
76125;SDS011;65174;48.138;21.002;2023-12-20T04:15:25;81.88;;;9.00;;
76125;SDS011;65174;48.138;21.002;2023-12-20T04:18:27;48.22;;;9.25;;
76125;SDS011;65174;48.138;21.002;2023-12-20T04:21:30;32.15;;;7.80;;
76125;SDS011;65174;48.138;21.002;2023-12-20T04:24:32;52.50;;;8.37;;
76125;SDS011;65174;48.138;21.002;2023-12-20T04:27:34;30.15;;;8.55;;
76125;SDS011;65174;48.138;21.002;2023-12-20T04:30:36;34.35;;;9.20;;
76125;SDS011;65174;48.138;21.002;2023-12-20T04:33:38;40.13;;;8.82;;
76125;SDS011;65174;48.138;21.002;2023-12-20T04:36:40;35.35;;;9.70;;
76125;SDS011;65174;48.138;21.002;2023-12-20T04:39:42;45.40;;;10.07;;
76125;SDS011;65174;48.138;21.002;2023-12-20T04:42:45;30.92;;;8.68;;
76125;SDS011;65174;48.138;21.002;2023-12-20T04:45:47;44.88;;;9.07;;
76125;SDS011;65174;48.138;21.002;2023-12-20T04:48:49;32.83;;;7.90;;
76125;SDS011;65174;48.138;21.002;2023-12-20T04:51:51;47.78;;;9.65;;
76125;SDS011;65174;48.138;21.002;2023-12-20T04:54:53;32.77;;;8.03;;
76125;SDS011;65174;48.138;21.002;2023-12-20T04:57:55;36.30;;;8.85;;
76125;SDS011;65174;48.138;21.002;2023-12-20T05:00:58;33.83;;;9.77;;
76125;SDS011;65174;48.138;21.002;2023-12-20T05:04:00;31.42;;;9.65;;
76125;SDS011;65174;48.138;21.002;2023-12-20T05:07:02;30.25;;;11.02;;
76125;SDS011;65174;48.138;21.002;2023-12-20T05:10:07;42.43;;;10.00;;
76125;SDS011;65174;48.138;21.002;2023-12-20T05:13:12;39.38;;;8.13;;
76125;SDS011;65174;48.138;21.002;2023-12-20T05:16:14;27.70;;;9.13;;
76125;SDS011;65174;48.138;21.002;2023-12-20T05:19:19;44.50;;;10.65;;
76125;SDS011;65174;48.138;21.002;2023-12-20T05:22:22;29.35;;;9.43;;
76125;SDS011;65174;48.138;21.002;2023-12-20T05:25:23;21.47;;;9.00;;
76125;SDS011;65174;48.138;21.002;2023-12-20T05:28:25;25.15;;;7.93;;
76125;SDS011;65174;48.138;21.002;2023-12-20T05:31:27;28.05;;;11.68;;
76125;SDS011;65174;48.138;21.002;2023-12-20T05:34:30;25.02;;;10.20;;
76125;SDS011;65174;48.138;21.002;2023-12-20T05:37:33;34.65;;;10.85;;
76125;SDS011;65174;48.138;21.002;2023-12-20T05:40:34;43.40;;;13.60;;
76125;SDS011;65174;48.138;21.002;2023-12-20T05:43:36;35.60;;;12.75;;
76125;SDS011;65174;48.138;21.002;2023-12-20T05:46:38;43.40;;;11.18;;
76125;SDS011;65174;48.138;21.002;2023-12-20T05:49:41;30.10;;;9.27;;
76125;SDS011;65174;48.138;21.002;2023-12-20T05:52:44;33.40;;;9.70;;
76125;SDS011;65174;48.138;21.002;2023-12-20T05:55:46;24.23;;;7.47;;
76125;SDS011;65174;48.138;21.002;2023-12-20T05:58:48;35.53;;;9.30;;
76125;SDS011;65174;48.138;21.002;2023-12-20T06:01:50;24.60;;;8.02;;
76125;SDS011;65174;48.138;21.002;2023-12-20T06:04:52;31.88;;;9.05;;
76125;SDS011;65174;48.138;21.002;2023-12-20T06:07:54;22.10;;;7.97;;
76125;SDS011;65174;48.138;21.002;2023-12-20T06:10:58;8.63;;;4.10;;
76125;SDS011;65174;48.138;21.002;2023-12-20T06:14:01;16.85;;;6.78;;
76125;SDS011;65174;48.138;21.002;2023-12-20T06:17:03;24.95;;;8.73;;
76125;SDS011;65174;48.138;21.002;2023-12-20T06:20:06;33.33;;;8.32;;
76125;SDS011;65174;48.138;21.002;2023-12-20T06:23:10;41.05;;;9.20;;
76125;SDS011;65174;48.138;21.002;2023-12-20T06:26:12;32.97;;;8.87;;
76125;SDS011;65174;48.138;21.002;2023-12-20T06:29:14;28.92;;;10.35;;
76125;SDS011;65174;48.138;21.002;2023-12-20T06:32:16;21.25;;;8.68;;
76125;SDS011;65174;48.138;21.002;2023-12-20T06:35:18;26.77;;;7.57;;
76125;SDS011;65174;48.138;21.002;2023-12-20T06:38:20;26.77;;;5.85;;
76125;SDS011;65174;48.138;21.002;2023-12-20T06:41:22;18.83;;;6.87;;
76125;SDS011;65174;48.138;21.002;2023-12-20T06:44:26;24.15;;;9.45;;
76125;SDS011;65174;48.138;21.002;2023-12-20T06:47:28;18.85;;;7.32;;
76125;SDS011;65174;48.138;21.002;2023-12-20T06:50:30;30.17;;;8.75;;
76125;SDS011;65174;48.138;21.002;2023-12-20T06:53:32;27.05;;;8.73;;
76125;SDS011;65174;48.138;21.002;2023-12-20T06:56:34;20.80;;;8.40;;
76125;SDS011;65174;48.138;21.002;2023-12-20T06:59:39;20.35;;;8.23;;
76125;SDS011;65174;48.138;21.002;2023-12-20T07:02:41;26.52;;;8.52;;
76125;SDS011;65174;48.138;21.002;2023-12-20T07:05:43;23.48;;;7.47;;
76125;SDS011;65174;48.138;21.002;2023-12-20T07:08:45;26.65;;;8.95;;
76125;SDS011;65174;48.138;21.002;2023-12-20T07:11:47;32.60;;;7.27;;
76125;SDS011;65174;48.138;21.002;2023-12-20T07:14:50;19.77;;;7.35;;
76125;SDS011;65174;48.138;21.002;2023-12-20T07:17:52;27.38;;;11.98;;
76125;SDS011;65174;48.138;21.002;2023-12-20T07:20:54;30.70;;;8.55;;
76125;SDS011;65174;48.138;21.002;2023-12-20T07:23:57;27.42;;;8.77;;
76125;SDS011;65174;48.138;21.002;2023-12-20T07:26:59;28.37;;;8.60;;
76125;SDS011;65174;48.138;21.002;2023-12-20T07:30:02;22.90;;;7.68;;
76125;SDS011;65174;48.138;21.002;2023-12-20T07:33:04;28.38;;;7.45;;
76125;SDS011;65174;48.138;21.002;2023-12-20T07:36:07;23.67;;;8.30;;
76125;SDS011;65174;48.138;21.002;2023-12-20T07:39:09;23.45;;;7.57;;
76125;SDS011;65174;48.138;21.002;2023-12-20T07:42:12;23.93;;;6.83;;
76125;SDS011;65174;48.138;21.002;2023-12-20T07:45:14;30.13;;;7.45;;
76125;SDS011;65174;48.138;21.002;2023-12-20T07:48:16;18.45;;;6.72;;
76125;SDS011;65174;48.138;21.002;2023-12-20T07:51:19;27.45;;;8.35;;
76125;SDS011;65174;48.138;21.002;2023-12-20T07:54:23;30.75;;;9.02;;
76125;SDS011;65174;48.138;21.002;2023-12-20T07:57:28;39.63;;;5.97;;
76125;SDS011;65174;48.138;21.002;2023-12-20T08:00:30;32.25;;;7.85;;
76125;SDS011;65174;48.138;21.002;2023-12-20T08:03:32;19.13;;;7.07;;
76125;SDS011;65174;48.138;21.002;2023-12-20T08:18:25;19.38;;;7.03;;
76125;SDS011;65174;48.138;21.002;2023-12-20T08:21:28;40.65;;;8.18;;
76125;SDS011;65174;48.138;21.002;2023-12-20T08:24:30;22.63;;;7.00;;
76125;SDS011;65174;48.138;21.002;2023-12-20T08:27:32;25.10;;;7.23;;
76125;SDS011;65174;48.138;21.002;2023-12-20T08:30:34;31.42;;;7.45;;
76125;SDS011;65174;48.138;21.002;2023-12-20T08:33:36;12.23;;;6.72;;
76125;SDS011;65174;48.138;21.002;2023-12-20T08:36:38;30.08;;;7.95;;
76125;SDS011;65174;48.138;21.002;2023-12-20T08:39:40;40.50;;;9.13;;
76125;SDS011;65174;48.138;21.002;2023-12-20T08:42:46;18.10;;;7.17;;
76125;SDS011;65174;48.138;21.002;2023-12-20T08:45:48;15.30;;;7.53;;
76125;SDS011;65174;48.138;21.002;2023-12-20T08:48:50;29.85;;;8.48;;
76125;SDS011;65174;48.138;21.002;2023-12-20T08:51:53;21.92;;;8.52;;
76125;SDS011;65174;48.138;21.002;2023-12-20T08:54:55;14.90;;;7.00;;
76125;SDS011;65174;48.138;21.002;2023-12-20T08:57:58;18.00;;;7.03;;
76125;SDS011;65174;48.138;21.002;2023-12-20T09:01:00;29.23;;;8.35;;
76125;SDS011;65174;48.138;21.002;2023-12-20T09:04:02;18.63;;;6.85;;
76125;SDS011;65174;48.138;21.002;2023-12-20T09:07:05;17.17;;;7.72;;
76125;SDS011;65174;48.138;21.002;2023-12-20T09:10:07;27.03;;;8.33;;
76125;SDS011;65174;48.138;21.002;2023-12-20T09:13:09;13.27;;;7.13;;
76125;SDS011;65174;48.138;21.002;2023-12-20T09:16:11;21.40;;;7.18;;
76125;SDS011;65174;48.138;21.002;2023-12-20T09:19:15;16.08;;;7.32;;
76125;SDS011;65174;48.138;21.002;2023-12-20T09:22:17;39.75;;;9.35;;
76125;SDS011;65174;48.138;21.002;2023-12-20T09:25:19;28.20;;;7.70;;
76125;SDS011;65174;48.138;21.002;2023-12-20T09:28:25;15.00;;;6.33;;
76125;SDS011;65174;48.138;21.002;2023-12-20T09:32:13;32.83;;;5.80;;
76125;SDS011;65174;48.138;21.002;2023-12-20T09:35:15;16.30;;;6.05;;
76125;SDS011;65174;48.138;21.002;2023-12-20T09:38:18;26.02;;;7.63;;
76125;SDS011;65174;48.138;21.002;2023-12-20T09:41:20;15.20;;;7.00;;
76125;SDS011;65174;48.138;21.002;2023-12-20T09:44:22;22.87;;;6.77;;
76125;SDS011;65174;48.138;21.002;2023-12-20T09:47:25;20.73;;;7.95;;
76125;SDS011;65174;48.138;21.002;2023-12-20T09:50:27;30.38;;;5.85;;
76125;SDS011;65174;48.138;21.002;2023-12-20T09:53:32;22.98;;;6.70;;
76125;SDS011;65174;48.138;21.002;2023-12-20T09:56:38;35.70;;;7.37;;
76125;SDS011;65174;48.138;21.002;2023-12-20T09:59:40;20.73;;;8.43;;
76125;SDS011;65174;48.138;21.002;2023-12-20T10:03:00;26.92;;;7.72;;
76125;SDS011;65174;48.138;21.002;2023-12-20T10:06:03;19.50;;;9.07;;
76125;SDS011;65174;48.138;21.002;2023-12-20T10:09:05;26.88;;;8.70;;
76125;SDS011;65174;48.138;21.002;2023-12-20T10:12:08;30.10;;;9.60;;
76125;SDS011;65174;48.138;21.002;2023-12-20T10:15:10;22.30;;;9.27;;
76125;SDS011;65174;48.138;21.002;2023-12-20T10:18:12;31.05;;;9.00;;
76125;SDS011;65174;48.138;21.002;2023-12-20T10:21:15;28.27;;;9.15;;
76125;SDS011;65174;48.138;21.002;2023-12-20T10:24:17;19.17;;;7.90;;
76125;SDS011;65174;48.138;21.002;2023-12-20T10:27:20;25.27;;;6.87;;
76125;SDS011;65174;48.138;21.002;2023-12-20T10:30:22;29.73;;;8.63;;
76125;SDS011;65174;48.138;21.002;2023-12-20T10:33:28;22.63;;;8.65;;
76125;SDS011;65174;48.138;21.002;2023-12-20T10:36:36;25.98;;;7.75;;
76125;SDS011;65174;48.138;21.002;2023-12-20T10:39:38;29.95;;;7.72;;
76125;SDS011;65174;48.138;21.002;2023-12-20T10:42:40;29.57;;;8.43;;
76125;SDS011;65174;48.138;21.002;2023-12-20T10:45:42;20.30;;;7.97;;
76125;SDS011;65174;48.138;21.002;2023-12-20T10:48:47;26.45;;;8.35;;
76125;SDS011;65174;48.138;21.002;2023-12-20T10:51:50;34.33;;;8.40;;
76125;SDS011;65174;48.138;21.002;2023-12-20T10:54:53;22.88;;;8.43;;
76125;SDS011;65174;48.138;21.002;2023-12-20T10:58:06;55.33;;;11.03;;
76125;SDS011;65174;48.138;21.002;2023-12-20T11:01:09;34.37;;;11.83;;
76125;SDS011;65174;48.138;21.002;2023-12-20T11:04:14;46.25;;;11.75;;
76125;SDS011;65174;48.138;21.002;2023-12-20T11:07:46;50.67;;;11.52;;
76125;SDS011;65174;48.138;21.002;2023-12-20T11:18:13;33.70;;;12.97;;
76125;SDS011;65174;48.138;21.002;2023-12-20T11:21:16;42.65;;;12.15;;
76125;SDS011;65174;48.138;21.002;2023-12-20T11:24:21;73.88;;;13.00;;
76125;SDS011;65174;48.138;21.002;2023-12-20T11:27:23;55.75;;;11.10;;
76125;SDS011;65174;48.138;21.002;2023-12-20T11:30:25;57.90;;;12.37;;
76125;SDS011;65174;48.138;21.002;2023-12-20T11:33:42;73.03;;;12.20;;
76125;SDS011;65174;48.138;21.002;2023-12-20T11:36:45;47.40;;;13.00;;
76125;SDS011;65174;48.138;21.002;2023-12-20T11:43:37;30.80;;;11.48;;
76125;SDS011;65174;48.138;21.002;2023-12-20T11:46:39;16.80;;;6.60;;
76125;SDS011;65174;48.138;21.002;2023-12-20T11:49:41;27.23;;;6.10;;
76125;SDS011;65174;48.138;21.002;2023-12-20T11:52:43;28.95;;;10.05;;
76125;SDS011;65174;48.138;21.002;2023-12-20T11:55:47;14.13;;;6.90;;
76125;SDS011;65174;48.138;21.002;2023-12-20T11:58:49;42.63;;;10.90;;
76125;SDS011;65174;48.138;21.002;2023-12-20T12:01:52;24.23;;;6.47;;
76125;SDS011;65174;48.138;21.002;2023-12-20T12:04:54;45.13;;;11.20;;
76125;SDS011;65174;48.138;21.002;2023-12-20T12:07:58;30.23;;;13.27;;
76125;SDS011;65174;48.138;21.002;2023-12-20T12:11:00;41.85;;;13.00;;
76125;SDS011;65174;48.138;21.002;2023-12-20T12:14:02;47.40;;;15.10;;
76125;SDS011;65174;48.138;21.002;2023-12-20T12:17:04;71.13;;;14.10;;
76125;SDS011;65174;48.138;21.002;2023-12-20T12:20:06;25.47;;;9.70;;
76125;SDS011;65174;48.138;21.002;2023-12-20T12:23:09;48.47;;;10.05;;
76125;SDS011;65174;48.138;21.002;2023-12-20T12:26:11;41.17;;;13.52;;
76125;SDS011;65174;48.138;21.002;2023-12-20T12:29:13;42.00;;;12.93;;
76125;SDS011;65174;48.138;21.002;2023-12-20T12:32:15;41.87;;;11.07;;
76125;SDS011;65174;48.138;21.002;2023-12-20T12:38:52;37.70;;;12.15;;
76125;SDS011;65174;48.138;21.002;2023-12-20T12:41:54;46.28;;;10.77;;
76125;SDS011;65174;48.138;21.002;2023-12-20T12:44:56;45.97;;;12.07;;
76125;SDS011;65174;48.138;21.002;2023-12-20T12:47:58;57.87;;;18.77;;
76125;SDS011;65174;48.138;21.002;2023-12-20T12:51:00;103.07;;;27.70;;
76125;SDS011;65174;48.138;21.002;2023-12-20T12:54:01;59.03;;;16.42;;
76125;SDS011;65174;48.138;21.002;2023-12-20T12:57:03;80.13;;;12.63;;
76125;SDS011;65174;48.138;21.002;2023-12-20T13:00:05;66.20;;;17.15;;
76125;SDS011;65174;48.138;21.002;2023-12-20T13:03:10;79.33;;;18.67;;
76125;SDS011;65174;48.138;21.002;2023-12-20T13:06:12;60.70;;;18.53;;
76125;SDS011;65174;48.138;21.002;2023-12-20T13:09:14;80.28;;;16.58;;
76125;SDS011;65174;48.138;21.002;2023-12-20T13:12:17;64.32;;;16.73;;
76125;SDS011;65174;48.138;21.002;2023-12-20T13:15:18;77.30;;;14.85;;
76125;SDS011;65174;48.138;21.002;2023-12-20T13:18:22;81.37;;;15.30;;
76125;SDS011;65174;48.138;21.002;2023-12-20T13:21:24;57.73;;;13.57;;
76125;SDS011;65174;48.138;21.002;2023-12-20T13:24:26;70.15;;;12.75;;
76125;SDS011;65174;48.138;21.002;2023-12-20T13:27:28;56.95;;;14.07;;
76125;SDS011;65174;48.138;21.002;2023-12-20T13:30:29;59.75;;;15.68;;
76125;SDS011;65174;48.138;21.002;2023-12-20T13:33:31;68.90;;;15.43;;
76125;SDS011;65174;48.138;21.002;2023-12-20T13:36:33;51.37;;;14.30;;
76125;SDS011;65174;48.138;21.002;2023-12-20T13:39:35;56.78;;;14.48;;
76125;SDS011;65174;48.138;21.002;2023-12-20T13:42:37;70.38;;;14.07;;
76125;SDS011;65174;48.138;21.002;2023-12-20T13:45:39;69.40;;;18.13;;
76125;SDS011;65174;48.138;21.002;2023-12-20T13:52:42;65.93;;;10.97;;
76125;SDS011;65174;48.138;21.002;2023-12-20T13:55:44;57.00;;;14.63;;
76125;SDS011;65174;48.138;21.002;2023-12-20T13:58:46;59.60;;;15.30;;
76125;SDS011;65174;48.138;21.002;2023-12-20T14:01:48;61.83;;;14.25;;
76125;SDS011;65174;48.138;21.002;2023-12-20T14:04:52;55.90;;;13.10;;
76125;SDS011;65174;48.138;21.002;2023-12-20T14:07:54;32.77;;;9.87;;
76125;SDS011;65174;48.138;21.002;2023-12-20T14:10:59;39.40;;;12.05;;
76125;SDS011;65174;48.138;21.002;2023-12-20T14:14:02;39.55;;;10.25;;
76125;SDS011;65174;48.138;21.002;2023-12-20T14:17:04;27.33;;;11.82;;
76125;SDS011;65174;48.138;21.002;2023-12-20T14:20:08;42.67;;;12.73;;
76125;SDS011;65174;48.138;21.002;2023-12-20T14:26:54;32.33;;;13.05;;
76125;SDS011;65174;48.138;21.002;2023-12-20T14:29:57;59.05;;;16.77;;
76125;SDS011;65174;48.138;21.002;2023-12-20T14:32:59;35.92;;;12.15;;
76125;SDS011;65174;48.138;21.002;2023-12-20T14:36:01;61.43;;;13.80;;
76125;SDS011;65174;48.138;21.002;2023-12-20T14:39:04;26.77;;;11.27;;
76125;SDS011;65174;48.138;21.002;2023-12-20T14:42:10;22.70;;;10.50;;
76125;SDS011;65174;48.138;21.002;2023-12-20T14:45:15;30.52;;;13.00;;
76125;SDS011;65174;48.138;21.002;2023-12-20T14:48:18;25.85;;;9.65;;
76125;SDS011;65174;48.138;21.002;2023-12-20T14:51:20;51.40;;;11.90;;
76125;SDS011;65174;48.138;21.002;2023-12-20T14:54:22;25.87;;;11.10;;
76125;SDS011;65174;48.138;21.002;2023-12-20T14:57:24;25.58;;;11.55;;
76125;SDS011;65174;48.138;21.002;2023-12-20T15:00:26;28.05;;;11.88;;
76125;SDS011;65174;48.138;21.002;2023-12-20T15:03:27;37.47;;;13.27;;
76125;SDS011;65174;48.138;21.002;2023-12-20T15:06:30;33.13;;;13.47;;
76125;SDS011;65174;48.138;21.002;2023-12-20T15:09:33;28.00;;;11.77;;
76125;SDS011;65174;48.138;21.002;2023-12-20T15:12:35;29.90;;;10.30;;
76125;SDS011;65174;48.138;21.002;2023-12-20T15:15:37;32.53;;;13.02;;
76125;SDS011;65174;48.138;21.002;2023-12-20T15:18:39;41.60;;;15.63;;
76125;SDS011;65174;48.138;21.002;2023-12-20T15:21:41;49.77;;;16.53;;
76125;SDS011;65174;48.138;21.002;2023-12-20T15:24:48;49.63;;;14.47;;
76125;SDS011;65174;48.138;21.002;2023-12-20T15:27:52;45.88;;;14.75;;
76125;SDS011;65174;48.138;21.002;2023-12-20T15:30:55;51.28;;;14.48;;
76125;SDS011;65174;48.138;21.002;2023-12-20T15:33:59;41.55;;;14.57;;
76125;SDS011;65174;48.138;21.002;2023-12-20T15:37:01;52.77;;;14.67;;
76125;SDS011;65174;48.138;21.002;2023-12-20T15:40:03;66.63;;;22.33;;
76125;SDS011;65174;48.138;21.002;2023-12-20T15:43:07;57.00;;;20.65;;
76125;SDS011;65174;48.138;21.002;2023-12-20T15:46:09;45.13;;;16.38;;
76125;SDS011;65174;48.138;21.002;2023-12-20T15:49:11;41.38;;;14.50;;
76125;SDS011;65174;48.138;21.002;2023-12-20T15:52:13;47.57;;;14.33;;
76125;SDS011;65174;48.138;21.002;2023-12-20T15:55:15;35.20;;;12.20;;
76125;SDS011;65174;48.138;21.002;2023-12-20T15:58:17;25.65;;;12.38;;
76125;SDS011;65174;48.138;21.002;2023-12-20T16:01:19;46.53;;;12.82;;
76125;SDS011;65174;48.138;21.002;2023-12-20T16:04:22;51.03;;;16.77;;
76125;SDS011;65174;48.138;21.002;2023-12-20T16:07:24;49.17;;;14.77;;
76125;SDS011;65174;48.138;21.002;2023-12-20T16:10:26;46.37;;;14.37;;
76125;SDS011;65174;48.138;21.002;2023-12-20T16:13:28;51.17;;;15.30;;
76125;SDS011;65174;48.138;21.002;2023-12-20T16:16:30;44.47;;;16.10;;
76125;SDS011;65174;48.138;21.002;2023-12-20T16:19:32;45.65;;;16.30;;
76125;SDS011;65174;48.138;21.002;2023-12-20T16:22:34;44.13;;;13.80;;
76125;SDS011;65174;48.138;21.002;2023-12-20T16:25:36;45.37;;;14.27;;
76125;SDS011;65174;48.138;21.002;2023-12-20T16:28:39;51.25;;;14.15;;
76125;SDS011;65174;48.138;21.002;2023-12-20T16:31:41;35.20;;;12.52;;
76125;SDS011;65174;48.138;21.002;2023-12-20T16:34:43;25.25;;;9.93;;
76125;SDS011;65174;48.138;21.002;2023-12-20T16:37:46;36.13;;;11.87;;
76125;SDS011;65174;48.138;21.002;2023-12-20T16:40:48;57.43;;;14.53;;
76125;SDS011;65174;48.138;21.002;2023-12-20T16:43:50;55.17;;;14.73;;
76125;SDS011;65174;48.138;21.002;2023-12-20T16:46:52;71.55;;;12.50;;
76125;SDS011;65174;48.138;21.002;2023-12-20T16:49:55;23.83;;;7.25;;
76125;SDS011;65174;48.138;21.002;2023-12-20T16:52:57;50.10;;;14.07;;
76125;SDS011;65174;48.138;21.002;2023-12-20T16:55:59;33.63;;;11.90;;
76125;SDS011;65174;48.138;21.002;2023-12-20T16:59:01;54.80;;;12.68;;
76125;SDS011;65174;48.138;21.002;2023-12-20T17:02:03;77.55;;;14.10;;
76125;SDS011;65174;48.138;21.002;2023-12-20T17:05:06;34.13;;;11.35;;
76125;SDS011;65174;48.138;21.002;2023-12-20T17:08:08;39.70;;;12.77;;
76125;SDS011;65174;48.138;21.002;2023-12-20T17:11:10;54.70;;;13.47;;
76125;SDS011;65174;48.138;21.002;2023-12-20T17:14:12;58.50;;;12.80;;
76125;SDS011;65174;48.138;21.002;2023-12-20T17:17:14;54.00;;;12.70;;
76125;SDS011;65174;48.138;21.002;2023-12-20T17:20:16;38.25;;;10.40;;
76125;SDS011;65174;48.138;21.002;2023-12-20T17:23:18;40.47;;;12.53;;
76125;SDS011;65174;48.138;21.002;2023-12-20T17:26:20;40.80;;;12.60;;
76125;SDS011;65174;48.138;21.002;2023-12-20T17:29:23;43.53;;;13.05;;
76125;SDS011;65174;48.138;21.002;2023-12-20T17:32:25;47.75;;;12.25;;
76125;SDS011;65174;48.138;21.002;2023-12-20T17:35:27;44.65;;;12.00;;
76125;SDS011;65174;48.138;21.002;2023-12-20T17:38:29;62.20;;;21.53;;
76125;SDS011;65174;48.138;21.002;2023-12-20T17:41:31;64.53;;;15.67;;
76125;SDS011;65174;48.138;21.002;2023-12-20T17:44:34;62.53;;;16.90;;
76125;SDS011;65174;48.138;21.002;2023-12-20T17:51:08;43.20;;;14.35;;
76125;SDS011;65174;48.138;21.002;2023-12-20T17:54:09;34.23;;;9.13;;
76125;SDS011;65174;48.138;21.002;2023-12-20T17:57:11;26.17;;;9.17;;
76125;SDS011;65174;48.138;21.002;2023-12-20T18:00:14;27.30;;;9.45;;
76125;SDS011;65174;48.138;21.002;2023-12-20T18:03:17;17.70;;;8.38;;
76125;SDS011;65174;48.138;21.002;2023-12-20T18:06:20;28.85;;;9.10;;
76125;SDS011;65174;48.138;21.002;2023-12-20T18:09:22;17.67;;;7.80;;
76125;SDS011;65174;48.138;21.002;2023-12-20T18:12:24;74.83;;;9.23;;
76125;SDS011;65174;48.138;21.002;2023-12-20T18:15:26;25.55;;;7.57;;
76125;SDS011;65174;48.138;21.002;2023-12-20T18:18:28;79.25;;;10.38;;